Terminal Aerodrome Forecast
Issued by NWS Caribou, ME

Home | Current Version | Previous Version | Text Only | Print | Product List | Glossary On
Versions: 1 2 3 4 5 6 7 8 9 10 11 12 13 14 15 16 17 18 19
000
FTUS41 KCAR 010523
TAFBGR
TAF
KBGR 010523Z 0106/0206 VRB03KT P6SM BKN070
     FM011200 17004KT P6SM BKN015
     FM011600 16008KT 6SM -SHRA OVC020
     FM011800 16009KT 6SM -SHRA OVC045
     FM012000 15008KT 6SM -SHRA OVC020
     FM012200 15007KT P6SM OVC008
     FM012300 14007KT P6SM OVC005=

USA.gov is the U.S. government's official web portal to all federal, state and local government web resources and services.